Time;durP1;ratioP1;P1;durP2;ratioP2;P2;SDS_P1;SDS_P2;PMS_P1;PMS_P2;Temp;Humidity;BMP_temperature;BMP_pressure;BME280_temperature;BME280_humidity;BME280_pressure;Samples;Min_cycle;Max_cycle;Signal;HPM_P1;HPM_P2
2022/01/20 00:01:41;;;;;;;2.55;0.70;;;8.10;92.40;;;;;;5105707;28;20057;-72
2022/01/20 00:04:16;;;;;;;10.07;0.90;;;8.20;92.40;;;;;;5093344;28;20471;-72
2022/01/20 00:28:50;;;;;;;4.88;1.10;;;8.30;92.40;;;;;;5086589;28;20024;-72
2022/01/20 00:33:56;;;;;;;11.15;1.75;;;8.20;92.40;;;;;;5092815;28;20026;-72
2022/01/20 00:39:06;;;;;;;9.07;1.48;;;8.20;92.40;;;;;;5088883;28;20085;-72
2022/01/20 00:41:32;;;;;;;17.85;2.03;;;8.10;92.40;;;;;;5072285;28;20032;-72
2022/01/20 00:43:58;;;;;;;13.68;1.73;;;8.20;92.50;;;;;;5087262;28;20055;-72
2022/01/20 00:46:27;;;;;;;8.27;1.50;;;8.10;92.50;;;;;;5086186;28;20060;-72
2022/01/20 00:48:53;;;;;;;5.10;1.30;;;8.10;92.50;;;;;;5070059;28;20021;-72
2022/01/20 00:51:18;;;;;;;11.38;1.60;;;8.10;92.50;;;;;;5072042;28;20449;-72
2022/01/20 00:53:45;;;;;;;14.18;1.45;;;8.10;92.50;;;;;;5087837;28;20032;-72
2022/01/20 00:56:14;;;;;;;10.63;1.88;;;8.10;92.60;;;;;;5091732;28;20485;-71
2022/01/20 00:58:40;;;;;;;8.68;1.70;;;8.10;92.70;;;;;;5090720;28;20040;-72
2022/01/20 01:01:06;;;;;;;8.65;1.83;;;8.10;92.70;;;;;;5091164;28;20028;-72
2022/01/20 01:03:32;;;;;;;11.57;1.60;;;8.10;92.70;;;;;;5077362;28;20016;-72
2022/01/20 01:06:23;;;;;;;8.27;1.65;;;8.00;92.50;;;;;;5092388;28;20032;-72
2022/01/20 01:08:52;;;;;;;4.15;1.33;;;8.00;92.40;;;;;;5081850;28;20135;-72
2022/01/20 01:11:19;;;;;;;9.05;1.83;;;7.90;92.30;;;;;;5091225;28;20123;-71
2022/01/20 01:13:45;;;;;;;11.52;2.38;;;7.90;92.30;;;;;;5081178;28;20119;-71
2022/01/20 01:16:12;;;;;;;7.68;1.50;;;7.80;92.20;;;;;;5102405;28;20114;-72
2022/01/20 01:21:41;;;;;;;6.32;1.30;;;7.80;92.20;;;;;;5084670;28;20028;-72
2022/01/20 01:24:07;;;;;;;13.77;1.80;;;7.80;92.10;;;;;;5085192;28;20060;-71
2022/01/20 01:26:33;;;;;;;12.45;2.65;;;7.80;92.10;;;;;;5087911;28;20044;-72
2022/01/20 01:28:59;;;;;;;16.52;2.10;;;7.80;92.10;;;;;;5102248;28;20495;-71
2022/01/20 01:33:57;;;;;;;11.05;2.10;;;7.80;92.00;;;;;;5103052;28;20115;-72
2022/01/20 01:36:26;;;;;;;16.23;1.58;;;7.80;92.00;;;;;;5104617;28;20472;-72
2022/01/20 01:38:52;;;;;;;8.63;1.60;;;7.70;92.20;;;;;;5089719;28;20483;-71
2022/01/20 01:41:28;;;;;;;1.15;0.60;;;7.70;92.70;;;;;;5097676;28;20027;-72
2022/01/20 01:43:55;;;;;;;3.25;0.70;;;7.70;92.80;;;;;;5086204;28;20020;-72
2022/01/20 01:46:21;;;;;;;4.13;1.52;;;7.70;93.00;;;;;;5083704;28;20021;-72
2022/01/20 01:48:47;;;;;;;1.30;0.98;;;7.70;92.90;;;;;;5085153;28;20032;-72
2022/01/20 01:51:13;;;;;;;6.00;0.93;;;7.70;93.00;;;;;;5079815;28;20592;-72
2022/01/20 01:53:42;;;;;;;8.82;1.10;;;7.70;93.00;;;;;;5075075;28;20024;-72
2022/01/20 01:56:08;;;;;;;7.47;0.82;;;7.60;93.00;;;;;;5071985;28;20051;-71
2022/01/20 01:58:36;;;;;;;0.93;0.70;;;7.60;93.20;;;;;;5087823;28;20020;-72
2022/01/20 02:01:22;;;;;;;8.25;1.90;;;7.60;93.20;;;;;;5090368;28;20040;-72
2022/01/20 02:03:58;;;;;;;6.80;1.10;;;7.70;93.20;;;;;;5098248;28;20030;-72
2022/01/20 02:09:43;;;;;;;5.78;1.10;;;7.70;93.30;;;;;;5066944;28;20040;-72
2022/01/20 02:17:55;;;;;;;8.57;1.40;;;7.60;93.20;;;;;;5107265;28;20087;-72
2022/01/20 02:20:21;;;;;;;10.40;1.55;;;7.60;93.30;;;;;;5094395;28;20077;-72
2022/01/20 02:22:56;;;;;;;3.22;1.95;;;7.70;93.30;;;;;;5090471;28;20051;-72
2022/01/20 02:25:36;;;;;;;5.63;2.00;;;7.60;93.50;;;;;;5073480;28;20032;-72
2022/01/20 02:28:05;;;;;;;7.95;2.05;;;7.70;93.20;;;;;;5084424;28;20031;-71
2022/01/20 02:30:32;;;;;;;12.07;2.33;;;7.60;93.20;;;;;;5093578;28;20047;-72
2022/01/20 02:32:59;;;;;;;21.10;2.15;;;7.70;93.20;;;;;;5093527;28;20020;-71
2022/01/20 02:35:28;;;;;;;4.18;1.30;;;7.60;93.10;;;;;;5082667;28;20070;-71
2022/01/20 02:38:00;;;;;;;6.10;1.23;;;7.70;93.10;;;;;;5086454;28;20476;-71
2022/01/20 02:45:54;;;;;;;8.20;1.25;;;7.60;93.00;;;;;;5081153;28;20108;-71
2022/01/20 02:48:20;;;;;;;5.22;1.15;;;7.60;93.00;;;;;;5089358;28;20024;-72
2022/01/20 02:50:46;;;;;;;12.60;2.70;;;7.60;93.10;;;;;;5086742;28;20487;-72
2022/01/20 02:53:11;;;;;;;16.77;2.25;;;7.60;93.00;;;;;;5092774;28;20177;-72
2022/01/20 02:55:37;;;;;;;11.30;1.70;;;7.60;92.90;;;;;;5081435;28;20024;-72
2022/01/20 02:58:04;;;;;;;14.90;3.67;;;7.50;92.90;;;;;;5077267;28;20128;-72
2022/01/20 03:00:31;;;;;;;9.60;2.35;;;7.50;93.00;;;;;;5092755;28;20505;-72
2022/01/20 03:02:57;;;;;;;19.77;2.95;;;7.50;93.00;;;;;;5089742;28;20024;-72
2022/01/20 03:05:26;;;;;;;9.52;2.50;;;7.40;93.00;;;;;;5081197;28;20029;-72
2022/01/20 03:08:00;;;;;;;11.98;2.75;;;7.40;93.10;;;;;;5081674;28;20024;-72
2022/01/20 03:10:27;;;;;;;4.40;1.45;;;7.40;93.10;;;;;;5085930;28;20445;-71
2022/01/20 03:12:53;;;;;;;13.75;3.55;;;7.40;93.10;;;;;;5084914;28;20024;-73
2022/01/20 03:15:19;;;;;;;13.27;1.58;;;7.40;93.10;;;;;;5095225;28;20038;-71
2022/01/20 03:17:45;;;;;;;9.25;2.08;;;7.40;93.10;;;;;;5105502;28;20024;-71
2022/01/20 03:20:11;;;;;;;10.30;2.33;;;7.40;93.00;;;;;;5098072;28;20024;-71
2022/01/20 03:22:37;;;;;;;4.70;1.90;;;7.40;92.90;;;;;;5094111;28;20110;-72
2022/01/20 03:25:03;;;;;;;7.65;2.00;;;7.40;92.80;;;;;;5091679;28;20116;-72
2022/01/20 03:27:29;;;;;;;5.00;1.48;;;7.40;92.80;;;;;;5083243;28;20052;-71
2022/01/20 03:29:54;;;;;;;4.95;1.10;;;7.40;92.80;;;;;;5088045;28;20444;-71
2022/01/20 03:32:20;;;;;;;3.53;1.17;;;7.40;92.80;;;;;;5090320;28;20036;-71
2022/01/20 03:34:46;;;;;;;1.13;0.85;;;7.40;92.70;;;;;;5099091;28;20380;-71
2022/01/20 03:37:14;;;;;;;7.63;1.50;;;7.40;92.70;;;;;;5091356;28;20016;-72
2022/01/20 03:39:59;;;;;;;7.93;1.67;;;7.40;92.50;;;;;;5100329;28;20156;-71
2022/01/20 03:42:26;;;;;;;5.25;1.17;;;7.30;92.50;;;;;;5105589;28;20094;-71
2022/01/20 03:44:52;;;;;;;2.65;0.90;;;7.40;92.50;;;;;;5091768;28;20020;-71
2022/01/20 03:47:24;;;;;;;6.93;1.50;;;7.40;92.40;;;;;;5097477;28;20381;-72
2022/01/20 03:52:37;;;;;;;3.92;1.55;;;7.40;92.40;;;;;;5087147;28;20040;-72
2022/01/20 03:55:04;;;;;;;6.25;1.55;;;7.40;92.30;;;;;;5095051;28;20377;-71
2022/01/20 03:57:46;;;;;;;4.10;1.10;;;7.40;92.20;;;;;;5099525;28;20040;-71
2022/01/20 04:00:23;;;;;;;3.40;1.52;;;7.30;92.20;;;;;;5078679;28;20059;-71
2022/01/20 04:03:06;;;;;;;5.18;1.48;;;7.30;92.20;;;;;;5086224;28;20416;-72
2022/01/20 04:05:56;;;;;;;5.97;1.50;;;7.20;92.20;;;;;;5090951;28;20047;-71
2022/01/20 04:08:44;;;;;;;7.78;1.65;;;7.20;92.30;;;;;;5103996;28;20020;-71
2022/01/20 04:11:12;;;;;;;5.93;1.52;;;7.10;92.30;;;;;;5091912;28;20056;-71
2022/01/20 04:13:39;;;;;;;12.25;2.08;;;7.20;92.40;;;;;;5090984;28;20383;-71
2022/01/20 04:16:19;;;;;;;5.82;1.58;;;7.20;92.30;;;;;;5091415;28;20028;-71
2022/01/20 04:18:56;;;;;;;4.32;1.45;;;7.20;92.40;;;;;;5091487;28;20028;-71
2022/01/20 04:21:29;;;;;;;2.05;0.65;;;7.20;92.30;;;;;;5092548;28;20061;-71
2022/01/20 04:23:56;;;;;;;7.95;1.20;;;7.20;92.30;;;;;;5092693;28;20103;-71
2022/01/20 04:26:23;;;;;;;10.50;2.15;;;7.20;92.30;;;;;;5102214;28;20034;-71
2022/01/20 04:28:53;;;;;;;12.40;2.90;;;7.20;92.00;;;;;;5084924;28;20375;-71
2022/01/20 04:31:20;;;;;;;9.65;2.90;;;7.20;92.10;;;;;;5095258;28;20041;-72
2022/01/20 04:33:47;;;;;;;6.90;2.45;;;7.10;92.20;;;;;;5083797;28;20030;-71
2022/01/20 04:36:15;;;;;;;9.38;1.85;;;7.10;92.20;;;;;;5107467;28;20103;-71
2022/01/20 04:38:42;;;;;;;16.95;2.60;;;7.10;92.30;;;;;;5091033;28;20067;-71
2022/01/20 04:41:08;;;;;;;2.13;1.00;;;7.10;92.30;;;;;;5092081;28;20873;-71
2022/01/20 04:43:34;;;;;;;5.65;1.63;;;7.00;92.20;;;;;;5091923;28;20029;-71
2022/01/20 04:48:48;;;;;;;3.55;1.48;;;6.90;91.70;;;;;;5091430;28;20440;-71
2022/01/20 04:59:48;;;;;;;3.58;1.33;;;6.70;91.60;;;;;;5025584;28;20473;-72
2022/01/20 05:02:14;;;;;;;1.50;1.38;;;6.60;92.10;;;;;;5029339;28;20071;-73
2022/01/20 05:04:52;;;;;;;7.68;2.00;;;6.70;92.30;;;;;;5066944;28;20180;-72
2022/01/20 05:07:38;;;;;;;11.15;1.95;;;6.60;92.40;;;;;;5089172;28;20387;-72
2022/01/20 05:10:11;;;;;;;3.95;1.48;;;6.70;92.50;;;;;;5106926;28;20476;-72
2022/01/20 05:15:19;;;;;;;0.50;0.50;;;6.80;92.50;;;;;;5096144;28;20024;-73
2022/01/20 05:17:45;;;;;;;13.70;1.58;;;6.80;92.50;;;;;;5089945;28;20368;-71
2022/01/20 05:20:14;;;;;;;10.75;2.40;;;6.80;92.40;;;;;;5090625;28;20035;-72
2022/01/20 05:22:40;;;;;;;11.85;2.75;;;6.80;92.10;;;;;;5090906;28;20059;-74
2022/01/20 05:25:09;;;;;;;5.38;1.50;;;6.80;92.10;;;;;;5088189;28;20383;-71
2022/01/20 05:27:35;;;;;;;7.72;1.60;;;6.70;92.10;;;;;;5081122;28;20535;-71
2022/01/20 05:30:01;;;;;;;3.17;1.13;;;6.70;92.40;;;;;;5090500;28;20123;-71
2022/01/20 05:32:27;;;;;;;2.58;0.95;;;6.70;92.40;;;;;;5087032;28;20031;-71
2022/01/20 05:34:53;;;;;;;3.38;1.17;;;6.70;92.50;;;;;;5107673;28;20028;-72
2022/01/20 05:37:19;;;;;;;3.60;0.98;;;6.70;92.60;;;;;;5089857;28;20028;-70
2022/01/20 05:39:46;;;;;;;4.70;1.27;;;6.70;92.60;;;;;;5103799;28;20024;-68
2022/01/20 05:42:16;;;;;;;5.13;1.92;;;6.70;92.50;;;;;;5078238;28;20062;-67
2022/01/20 05:44:51;;;;;;;10.07;1.02;;;6.70;92.40;;;;;;5100954;28;20039;-68
2022/01/20 05:47:27;;;;;;;16.98;2.13;;;6.60;92.00;;;;;;5101853;28;20028;-68
2022/01/20 05:50:20;;;;;;;6.55;1.65;;;6.60;92.10;;;;;;5099375;28;20044;-67
2022/01/20 05:52:47;;;;;;;9.68;2.25;;;6.50;91.90;;;;;;5094590;28;20396;-73
2022/01/20 05:55:16;;;;;;;18.02;3.08;;;6.50;91.60;;;;;;5103507;28;20023;-68
2022/01/20 05:57:43;;;;;;;14.60;3.03;;;6.40;90.60;;;;;;5107180;28;20038;-68
2022/01/20 06:00:15;;;;;;;2.50;1.08;;;6.40;91.10;;;;;;5106606;28;20027;-69
2022/01/20 06:05:32;;;;;;;9.05;1.67;;;6.30;91.80;;;;;;5109664;28;20031;-69
2022/01/20 06:07:59;;;;;;;7.18;1.92;;;6.30;92.10;;;;;;5112822;28;20035;-69
2022/01/20 06:10:25;;;;;;;5.38;2.28;;;6.30;92.20;;;;;;5096152;28;20032;-69
2022/01/20 06:12:57;;;;;;;3.40;1.95;;;6.40;92.30;;;;;;5095758;28;20024;-69
2022/01/20 06:15:23;;;;;;;15.45;2.58;;;6.40;92.40;;;;;;5102005;27;20028;-69
2022/01/20 06:17:49;;;;;;;10.68;2.10;;;6.50;92.40;;;;;;5105949;28;20064;-70
2022/01/20 06:20:15;;;;;;;4.95;1.70;;;6.50;92.20;;;;;;5105154;28;20487;-70
2022/01/20 06:22:41;;;;;;;12.07;1.80;;;6.50;91.90;;;;;;5111643;28;20034;-68
2022/01/20 06:25:08;;;;;;;8.55;1.67;;;6.40;91.60;;;;;;5106012;28;20019;-69
2022/01/20 06:27:34;;;;;;;1.25;1.00;;;6.30;91.70;;;;;;5110899;28;20487;-68
2022/01/20 06:30:01;;;;;;;10.93;1.35;;;6.30;92.00;;;;;;5106894;28;20032;-69
2022/01/20 06:32:28;;;;;;;3.50;2.10;;;6.30;92.10;;;;;;5099007;28;20483;-68
2022/01/20 06:34:55;;;;;;;8.07;1.80;;;6.40;92.10;;;;;;5107323;28;20019;-68
2022/01/20 06:37:21;;;;;;;7.30;1.52;;;6.40;92.10;;;;;;5099648;28;20043;-69
2022/01/20 06:39:47;;;;;;;8.30;1.30;;;6.40;92.10;;;;;;5110639;28;20042;-68
2022/01/20 06:42:13;;;;;;;10.82;1.40;;;6.30;92.00;;;;;;5109464;28;20448;-68
2022/01/20 06:44:39;;;;;;;4.72;1.30;;;6.30;91.80;;;;;;5111418;28;20047;-68
2022/01/20 06:47:05;;;;;;;7.13;2.95;;;6.30;91.50;;;;;;5106975;28;20375;-69
2022/01/20 06:49:36;;;;;;;11.05;1.48;;;6.30;91.90;;;;;;5091629;28;20043;-71
2022/01/20 06:52:06;;;;;;;10.85;2.20;;;6.30;92.20;;;;;;5105265;28;20035;-70
2022/01/20 06:54:32;;;;;;;3.35;1.17;;;6.30;92.40;;;;;;5111258;28;20360;-69
2022/01/20 06:56:59;;;;;;;8.55;1.27;;;6.30;92.30;;;;;;5113506;28;20023;-68
2022/01/20 06:59:26;;;;;;;12.77;1.55;;;6.30;92.40;;;;;;5093208;28;20518;-68
2022/01/20 07:01:52;;;;;;;3.95;1.75;;;6.30;92.10;;;;;;5092313;28;20075;-68
2022/01/20 07:04:27;;;;;;;7.45;1.73;;;6.30;92.00;;;;;;5085367;28;20023;-67
2022/01/20 07:06:55;;;;;;;4.25;1.90;;;6.30;92.00;;;;;;5088002;28;20032;-68
2022/01/20 07:09:39;;;;;;;0.85;0.85;;;6.30;92.10;;;;;;5093653;28;20055;-68
2022/01/20 07:12:31;;;;;;;12.50;2.65;;;6.30;92.20;;;;;;5075057;28;20495;-68
2022/01/20 07:14:59;;;;;;;7.43;1.08;;;6.30;92.20;;;;;;5090831;28;20055;-68
2022/01/20 07:17:26;;;;;;;4.53;1.30;;;6.40;92.20;;;;;;5091920;28;20104;-68
2022/01/20 07:19:54;;;;;;;5.50;1.30;;;6.40;92.30;;;;;;5105915;28;20028;-68
2022/01/20 07:22:21;;;;;;;11.80;2.17;;;6.40;92.40;;;;;;5092767;28;20032;-68
2022/01/20 07:24:47;;;;;;;9.27;2.33;;;6.40;92.20;;;;;;5091719;28;20058;-68
2022/01/20 07:27:22;;;;;;;5.75;2.47;;;6.50;92.30;;;;;;5092841;28;20096;-68
2022/01/20 07:29:49;;;;;;;2.15;1.23;;;6.50;92.20;;;;;;5091742;28;20120;-68
2022/01/20 07:32:15;;;;;;;4.32;1.30;;;6.50;92.10;;;;;;5080088;28;20089;-68
2022/01/20 07:34:41;;;;;;;9.25;2.13;;;6.50;92.10;;;;;;5092607;28;20020;-68
2022/01/20 07:37:07;;;;;;;3.55;1.25;;;6.40;92.20;;;;;;5091535;28;20072;-68
2022/01/20 07:39:34;;;;;;;7.72;1.38;;;6.40;92.20;;;;;;5092157;28;20031;-68
2022/01/20 07:42:00;;;;;;;3.33;1.08;;;6.40;92.10;;;;;;5093365;28;20028;-68
2022/01/20 07:44:44;;;;;;;4.13;1.95;;;6.30;92.10;;;;;;5092891;28;20105;-68
2022/01/20 07:47:28;;;;;;;;;;;6.30;91.80;;;;;;5074077;28;20494;-68
2022/01/20 07:49:54;;;;;;;3.00;1.42;;;6.20;91.80;;;;;;5084882;28;19916;-68
2022/01/20 07:52:20;;;;;;;4.68;1.58;;;6.20;91.80;;;;;;5091424;28;20282;-68
2022/01/20 07:54:49;;;;;;;5.43;1.23;;;6.10;91.70;;;;;;5091699;28;20028;-68
2022/01/20 07:57:15;;;;;;;7.15;1.40;;;6.00;91.80;;;;;;5093574;28;20106;-68
2022/01/20 07:59:40;;;;;;;5.65;1.55;;;6.00;91.90;;;;;;5077778;28;20040;-68
2022/01/20 08:02:08;;;;;;;20.63;3.33;;;5.90;91.90;;;;;;5084818;28;20029;-68
2022/01/20 08:04:34;;;;;;;2.28;1.25;;;6.00;92.00;;;;;;5086220;28;20103;-68
2022/01/20 08:07:03;;;;;;;5.20;1.15;;;6.00;92.10;;;;;;5103924;28;20057;-69
2022/01/20 08:09:29;;;;;;;9.30;2.60;;;6.00;92.20;;;;;;5093059;28;20020;-68
2022/01/20 08:12:30;;;;;;;2.92;1.77;;;6.00;92.30;;;;;;5100828;28;20406;-69
2022/01/20 08:15:12;;;;;;;5.05;1.80;;;6.00;92.30;;;;;;5094381;28;20493;-70
2022/01/20 08:18:00;;;;;;;0.50;0.50;;;6.00;92.00;;;;;;5091646;28;20075;-70
2022/01/20 08:20:25;;;;;;;8.38;1.75;;;6.00;92.20;;;;;;5090782;28;20062;-70
2022/01/20 08:22:56;;;;;;;14.05;2.97;;;6.00;92.40;;;;;;5079610;28;20079;-71
2022/01/20 08:25:23;;;;;;;1.00;0.95;;;6.10;92.30;;;;;;5091389;28;20506;-70
2022/01/20 08:27:49;;;;;;;9.95;1.70;;;6.10;92.30;;;;;;5089822;28;20039;-70
2022/01/20 08:30:18;;;;;;;10.45;1.75;;;6.10;92.00;;;;;;5098411;28;20027;-70
2022/01/20 08:32:50;;;;;;;10.00;2.13;;;6.00;91.90;;;;;;5093421;28;20093;-68
2022/01/20 08:35:37;;;;;;;1.10;0.93;;;6.00;91.80;;;;;;5104091;28;20027;-68
2022/01/20 08:38:07;;;;;;;12.15;2.17;;;5.90;92.00;;;;;;5084021;28;20021;-68
2022/01/20 08:40:33;;;;;;;4.47;0.88;;;6.00;92.00;;;;;;5085962;28;20032;-68
2022/01/20 08:43:00;;;;;;;6.60;1.38;;;6.00;92.00;;;;;;5091408;28;20028;-68
2022/01/20 08:45:31;;;;;;;19.60;3.05;;;6.00;92.00;;;;;;5107965;28;20039;-68
2022/01/20 08:47:57;;;;;;;6.05;1.35;;;5.90;91.90;;;;;;5092134;28;20056;-68
2022/01/20 08:50:31;;;;;;;5.30;1.48;;;6.00;91.90;;;;;;5090461;28;20071;-68
2022/01/20 08:52:57;;;;;;;1.80;1.15;;;5.90;91.80;;;;;;5091128;28;20059;-68
2022/01/20 08:55:26;;;;;;;11.35;2.25;;;5.90;91.90;;;;;;5090265;28;20114;-68
2022/01/20 08:57:55;;;;;;;4.43;1.55;;;5.90;91.70;;;;;;5092101;28;20123;-68
2022/01/20 09:00:23;;;;;;;7.13;1.65;;;5.90;91.90;;;;;;5104246;28;20028;-68
2022/01/20 09:02:59;;;;;;;9.57;1.20;;;5.90;91.90;;;;;;5084606;28;20029;-68
2022/01/20 09:05:26;;;;;;;2.50;1.48;;;5.90;91.70;;;;;;5091114;28;20454;-68
2022/01/20 09:08:12;;;;;;;15.45;2.35;;;5.80;91.50;;;;;;5085746;28;20119;-69
2022/01/20 09:10:43;;;;;;;5.53;2.22;;;5.80;91.70;;;;;;5083620;28;20044;-68
2022/01/20 09:15:58;;;;;;;3.35;1.40;;;5.80;91.50;;;;;;5089929;28;20518;-69
2022/01/20 09:18:41;;;;;;;6.63;1.35;;;5.80;91.80;;;;;;5091009;28;20032;-69
2022/01/20 09:21:07;;;;;;;7.97;2.00;;;5.90;91.80;;;;;;5090502;28;20517;-68
2022/01/20 09:23:33;;;;;;;11.57;2.42;;;5.90;91.80;;;;;;5091719;28;20020;-68
2022/01/20 09:25:59;;;;;;;4.47;1.48;;;5.90;91.70;;;;;;5095084;28;20032;-68
2022/01/20 09:28:27;;;;;;;9.43;1.80;;;5.80;91.70;;;;;;5094652;28;20024;-69
2022/01/20 09:30:57;;;;;;;10.27;2.33;;;5.80;91.80;;;;;;5098899;28;20039;-68
2022/01/20 09:33:27;;;;;;;7.68;1.88;;;5.80;92.00;;;;;;5094606;28;20019;-68
2022/01/20 09:35:54;;;;;;;7.20;1.83;;;5.90;92.30;;;;;;5097414;28;20104;-69
2022/01/20 09:38:20;;;;;;;13.70;2.13;;;6.00;92.70;;;;;;5095674;28;20028;-69
2022/01/20 09:40:46;;;;;;;5.40;1.38;;;6.00;92.50;;;;;;5081573;28;20055;-68
2022/01/20 09:43:16;;;;;;;2.67;1.48;;;6.10;92.50;;;;;;5094728;28;20020;-69
2022/01/20 09:45:49;;;;;;;6.97;1.20;;;6.20;92.40;;;;;;5094323;28;20032;-68
2022/01/20 09:48:19;;;;;;;6.28;2.15;;;6.30;92.40;;;;;;5094644;28;20502;-68
2022/01/20 09:51:03;;;;;;;16.10;2.70;;;6.30;92.20;;;;;;5084055;28;20059;-68
2022/01/20 09:53:50;;;;;;;15.63;1.83;;;6.30;91.90;;;;;;5084373;28;20028;-68
2022/01/20 09:56:44;;;;;;;6.72;1.42;;;6.30;91.40;;;;;;5077998;28;20380;-68
2022/01/20 09:59:12;;;;;;;6.25;1.58;;;6.30;91.70;;;;;;5083320;28;20444;-68
2022/01/20 10:01:43;;;;;;;5.72;1.67;;;6.20;91.70;;;;;;5094972;28;20483;-68
2022/01/20 10:04:24;;;;;;;9.40;1.55;;;6.20;91.60;;;;;;5087929;28;20035;-69
2022/01/20 10:07:14;;;;;;;3.67;1.45;;;6.20;91.80;;;;;;5104992;27;20114;-70
2022/01/20 10:09:48;;;;;;;3.92;0.80;;;6.20;92.00;;;;;;5095532;28;20024;-68
2022/01/20 10:12:19;;;;;;;4.60;1.58;;;6.20;92.10;;;;;;5091922;28;20487;-70
2022/01/20 10:15:08;;;;;;;4.97;2.33;;;6.20;92.10;;;;;;5075299;28;20392;-67
2022/01/20 10:18:03;;;;;;;7.78;1.85;;;6.30;92.30;;;;;;5077519;28;20043;-74
2022/01/20 10:20:30;;;;;;;3.17;1.23;;;6.30;92.10;;;;;;5094914;28;20100;-73
2022/01/20 10:22:59;;;;;;;1.90;1.00;;;6.30;92.10;;;;;;5094857;28;20024;-73
2022/01/20 10:25:40;;;;;;;2.75;0.65;;;6.20;92.20;;;;;;5102306;28;20043;-74
2022/01/20 10:28:14;;;;;;;1.38;0.98;;;6.30;92.50;;;;;;5090444;28;20050;-73
2022/01/20 10:30:46;;;;;;;2.95;0.73;;;6.20;92.50;;;;;;5104993;28;20032;-74
2022/01/20 10:33:11;;;;;;;9.90;0.80;;;6.30;92.60;;;;;;5084325;28;20056;-74
2022/01/20 10:35:41;;;;;;;5.03;1.67;;;6.30;92.60;;;;;;5101198;28;20032;-74
2022/01/20 10:38:20;;;;;;;1.85;1.05;;;6.40;92.70;;;;;;5101246;28;20035;-73
2022/01/20 10:41:05;;;;;;;3.85;1.25;;;6.50;92.70;;;;;;5102852;28;20038;-79
2022/01/20 10:43:35;;;;;;;2.55;1.13;;;6.50;92.50;;;;;;5100154;28;20497;-73
2022/01/20 10:46:16;;;;;;;5.28;1.33;;;6.40;92.60;;;;;;5098676;28;20040;-79
2022/01/20 10:48:43;;;;;;;1.60;0.77;;;6.50;92.50;;;;;;5105459;28;20498;-73
2022/01/20 10:51:16;;;;;;;2.90;1.27;;;6.50;92.40;;;;;;5095128;28;20142;-72
2022/01/20 10:53:42;;;;;;;6.18;0.93;;;6.60;92.40;;;;;;5092256;28;20054;-73
2022/01/20 10:56:08;;;;;;;1.17;0.80;;;6.50;92.30;;;;;;5090515;28;20024;-72
2022/01/20 10:58:34;;;;;;;4.22;1.17;;;6.50;92.40;;;;;;5083549;28;20077;-73
2022/01/20 11:01:16;;;;;;;7.50;2.78;;;6.50;92.50;;;;;;5098673;28;20041;-73
2022/01/20 11:03:41;;;;;;;1.48;0.93;;;6.50;92.50;;;;;;5085485;28;20361;-72
2022/01/20 11:06:11;;;;;;;3.63;1.30;;;6.60;92.50;;;;;;5106091;28;20105;-73
2022/01/20 11:08:44;;;;;;;3.70;1.30;;;6.60;92.50;;;;;;5092261;28;20085;-72
2022/01/20 11:11:15;;;;;;;7.55;1.25;;;6.60;92.50;;;;;;5091795;28;20036;-72
2022/01/20 11:13:46;;;;;;;6.32;1.58;;;6.60;92.50;;;;;;5103450;28;20509;-73
2022/01/20 11:16:12;;;;;;;10.43;1.90;;;6.80;92.50;;;;;;5104967;28;20123;-73
2022/01/20 11:18:42;;;;;;;6.97;1.88;;;6.70;92.40;;;;;;5109331;28;20099;-73
2022/01/20 11:21:08;;;;;;;2.30;1.13;;;6.80;92.20;;;;;;5106553;28;20087;-73
2022/01/20 11:23:42;;;;;;;6.57;1.42;;;6.80;92.30;;;;;;5102208;28;20023;-72
2022/01/20 11:26:26;;;;;;;5.50;1.50;;;6.80;92.30;;;;;;5109148;28;20081;-72
2022/01/20 11:29:17;;;;;;;9.18;2.03;;;6.80;92.30;;;;;;5098041;28;20042;-72
2022/01/20 11:32:22;;;;;;;7.07;1.73;;;6.80;92.50;;;;;;5104167;28;20108;-72
2022/01/20 11:35:06;;;;;;;2.50;1.17;;;6.80;92.50;;;;;;5105768;28;20111;-73
2022/01/20 11:37:35;;;;;;;7.55;1.60;;;6.80;92.60;;;;;;5093112;28;20028;-73
2022/01/20 11:40:11;;;;;;;8.63;1.38;;;6.90;92.50;;;;;;5092954;28;20071;-74
2022/01/20 11:42:38;;;;;;;11.38;2.17;;;6.90;92.50;;;;;;5093373;28;20131;-73
2022/01/20 11:45:28;;;;;;;5.20;1.38;;;6.90;92.40;;;;;;5102562;28;20028;-73
2022/01/20 11:47:55;;;;;;;6.50;1.13;;;7.00;92.50;;;;;;5083271;28;20371;-73
2022/01/20 11:50:21;;;;;;;9.15;1.83;;;7.00;92.40;;;;;;5095507;28;20053;-73
2022/01/20 11:52:47;;;;;;;6.45;1.00;;;7.00;92.40;;;;;;5103740;28;20032;-73
2022/01/20 11:55:15;;;;;;;4.93;1.05;;;7.00;91.80;;;;;;5093270;28;20122;-73
2022/01/20 11:57:41;;;;;;;4.72;1.98;;;6.90;91.70;;;;;;5103759;28;20028;-73
2022/01/20 12:00:24;;;;;;;4.32;1.00;;;6.80;91.60;;;;;;5095530;28;20103;-72
2022/01/20 12:02:51;;;;;;;0.70;0.68;;;6.80;91.30;;;;;;5086941;28;20090;-72
2022/01/20 12:05:31;;;;;;;4.22;1.60;;;6.70;91.70;;;;;;5091550;28;20027;-72
2022/01/20 12:08:20;;;;;;;2.37;0.87;;;6.70;91.50;;;;;;5091571;28;20472;-73
2022/01/20 12:11:04;;;;;;;4.10;1.30;;;6.70;91.50;;;;;;5092150;28;20051;-72
2022/01/20 12:13:30;;;;;;;5.60;1.65;;;6.60;91.20;;;;;;5074806;28;20059;-72
2022/01/20 12:16:00;;;;;;;9.70;1.50;;;6.60;91.70;;;;;;5089072;28;20040;-72
2022/01/20 12:18:28;;;;;;;7.03;1.75;;;6.70;92.00;;;;;;5101657;28;20035;-72
2022/01/20 12:20:54;;;;;;;5.40;1.38;;;6.70;92.30;;;;;;5095606;28;20077;-72
2022/01/20 12:23:24;;;;;;;6.57;1.80;;;6.70;92.50;;;;;;5106472;28;20020;-72
2022/01/20 12:25:50;;;;;;;4.50;1.20;;;6.80;92.50;;;;;;5105195;28;20493;-72
2022/01/20 12:28:17;;;;;;;1.23;0.60;;;6.80;92.60;;;;;;5105417;28;20032;-72
2022/01/20 12:30:48;;;;;;;14.93;1.92;;;6.90;92.70;;;;;;5092530;28;20048;-72
2022/01/20 12:33:15;;;;;;;5.50;1.90;;;6.90;92.70;;;;;;5100000;28;20034;-72
2022/01/20 12:35:45;;;;;;;4.35;0.88;;;7.00;92.70;;;;;;5097299;28;20038;-72
2022/01/20 12:38:29;;;;;;;2.08;1.02;;;7.00;92.60;;;;;;5092675;28;20492;-72
2022/01/20 12:41:18;;;;;;;0.70;0.70;;;7.10;92.70;;;;;;5091965;28;20038;-72
2022/01/20 12:43:59;;;;;;;3.88;1.40;;;7.10;92.70;;;;;;5079418;28;20491;-72
2022/01/20 12:46:30;;;;;;;1.58;0.75;;;7.20;92.70;;;;;;5091987;28;20500;-72
2022/01/20 12:48:58;;;;;;;8.48;2.13;;;7.20;92.70;;;;;;5092008;28;20032;-72
2022/01/20 12:51:53;;;;;;;14.13;1.58;;;7.20;92.60;;;;;;5081149;28;20052;-71
2022/01/20 12:54:27;;;;;;;6.22;1.25;;;7.20;92.50;;;;;;5081821;28;20395;-72
2022/01/20 12:56:58;;;;;;;4.15;1.20;;;7.20;92.50;;;;;;5092232;28;20028;-72
2022/01/20 12:59:36;;;;;;;8.60;1.17;;;7.20;92.70;;;;;;5090785;28;20513;-72
2022/01/20 13:02:06;;;;;;;15.05;2.15;;;7.20;92.80;;;;;;5079690;28;20032;-72
2022/01/20 13:04:34;;;;;;;17.40;3.00;;;7.30;92.60;;;;;;5091719;28;20036;-65
2022/01/20 13:07:03;;;;;;;4.38;1.00;;;7.30;92.30;;;;;;5092620;28;20038;-70
2022/01/20 13:10:04;;;;;;;5.40;1.58;;;7.40;92.50;;;;;;5095505;28;20034;-70
2022/01/20 13:12:41;;;;;;;6.90;1.52;;;7.40;92.60;;;;;;5088369;28;20081;-70
2022/01/20 13:15:17;;;;;;;7.53;2.22;;;7.40;92.60;;;;;;5090208;28;20063;-70
2022/01/20 13:17:44;;;;;;;5.93;1.80;;;7.50;92.60;;;;;;5106640;28;20034;-67
2022/01/20 13:20:19;;;;;;;3.83;1.00;;;7.40;92.50;;;;;;5091988;28;20032;-67
2022/01/20 13:22:55;;;;;;;7.15;1.77;;;7.40;92.60;;;;;;5091211;28;20032;-67
2022/01/20 13:25:29;;;;;;;5.65;1.40;;;7.50;92.60;;;;;;5104336;28;20437;-67
2022/01/20 13:28:05;;;;;;;12.73;1.45;;;7.50;92.50;;;;;;5092186;28;20115;-69
2022/01/20 13:30:39;;;;;;;10.43;1.88;;;7.50;92.50;;;;;;5091443;28;20115;-70
2022/01/20 13:33:25;;;;;;;5.32;2.67;;;7.50;92.50;;;;;;5081011;28;20490;-71
2022/01/20 13:35:57;;;;;;;2.78;1.58;;;7.50;93.00;;;;;;5093369;28;20513;-71
2022/01/20 13:38:31;;;;;;;11.23;2.38;;;7.50;93.20;;;;;;5106785;28;20447;-71
2022/01/20 13:41:12;;;;;;;10.10;1.45;;;7.50;93.10;;;;;;5101155;28;20035;-71
2022/01/20 13:46:36;;;;;;;10.52;1.80;;;7.50;93.20;;;;;;5098521;28;20035;-71
2022/01/20 13:49:17;;;;;;;2.30;1.27;;;7.50;93.10;;;;;;5100254;28;20477;-71
2022/01/20 13:51:44;;;;;;;2.95;1.15;;;7.50;92.40;;;;;;5093109;28;20047;-70
2022/01/20 13:54:10;;;;;;;4.22;1.38;;;7.60;93.00;;;;;;5099672;28;20031;-71
2022/01/20 13:56:36;;;;;;;10.05;1.30;;;7.50;93.00;;;;;;5098816;28;20067;-71
2022/01/20 13:59:05;;;;;;;10.38;1.80;;;7.60;93.00;;;;;;5099963;28;20035;-71
2022/01/20 14:01:30;;;;;;;9.85;1.98;;;7.60;92.90;;;;;;5085092;28;20048;-71
2022/01/20 14:03:56;;;;;;;12.23;3.05;;;7.70;92.80;;;;;;5090780;28;20459;-72
2022/01/20 14:06:22;;;;;;;6.60;2.28;;;7.70;92.80;;;;;;5104569;28;20016;-70
2022/01/20 14:08:48;;;;;;;3.03;1.27;;;7.70;92.70;;;;;;5084556;28;20326;-71
2022/01/20 14:11:17;;;;;;;17.30;2.65;;;7.70;92.70;;;;;;5101355;28;20040;-71
2022/01/20 14:13:43;;;;;;;2.85;0.90;;;7.70;92.50;;;;;;5109706;28;20032;-72
2022/01/20 14:16:09;;;;;;;7.90;1.48;;;7.80;92.60;;;;;;5106510;28;20030;-71
2022/01/20 14:18:42;;;;;;;12.38;1.55;;;7.70;92.70;;;;;;5108713;27;20032;-71
2022/01/20 14:21:15;;;;;;;14.00;2.05;;;7.70;92.80;;;;;;5101430;28;20036;-73
2022/01/20 14:23:41;;;;;;;3.10;0.80;;;7.70;92.60;;;;;;5103636;28;20059;-71
2022/01/20 14:26:08;;;;;;;0.90;0.60;;;7.80;92.40;;;;;;5104789;28;20180;-71
2022/01/20 14:28:34;;;;;;;6.75;1.00;;;7.70;92.50;;;;;;5110647;28;20104;-71